Terminal Aerodrome Forecast
Issued by NWS

Home | Current Version | Previous Version | Text Only | Print | Product List | Glossary On
Versions: 1 2 3 4 5 6 7 8 9 10 11 12 13 14 15 16 17 18 19 20 21
000
FTUS41 KOKX 261133
TAFHPN
TAF
KHPN 261133Z 2612/2712 VRB05KT P6SM FEW250
     FM261400 22008KT P6SM SCT250
     FM261800 18011G18KT P6SM SCT250
     FM270000 19005KT P6SM BKN250
     FM270800 16004KT 4SM BR BKN030
      AMD NOT SKED=

USA.gov is the U.S. government's official web portal to all federal, state and local government web resources and services.